Time;durP1;ratioP1;P1;durP2;ratioP2;P2;SDS_P1;SDS_P2;PMS_P1;PMS_P2;Temp;Humidity;BMP_temperature;BMP_pressure;BME280_temperature;BME280_humidity;BME280_pressure;Samples;Min_cycle;Max_cycle;Signal;HPM_P1;HPM_P2
2023/07/23 00:01:50;;;;;;;7.70;3.15;;;;;;;;;;5061178;28;20044;-67
2023/07/23 00:04:17;;;;;;;7.07;3.13;;;;;;;;;;5063731;28;20036;-71
2023/07/23 00:06:44;;;;;;;8.68;3.58;;;;;;;;;;5074668;28;20090;-67
2023/07/23 00:09:12;;;;;;;15.40;6.18;;;;;;;;;;5071742;28;20048;-70
2023/07/23 00:11:43;;;;;;;11.02;4.43;;;;;;;;;;5008550;27;20056;-69
2023/07/23 00:14:10;;;;;;;9.07;4.55;;;;;;;;;;5005893;28;20166;-67
2023/07/23 00:16:37;;;;;;;10.68;5.13;;;;;;;;;;5011034;28;20118;-69
2023/07/23 00:19:04;;;;;;;12.27;4.88;;;;;;;;;;4983212;28;20054;-70
2023/07/23 00:21:31;;;;;;;15.97;4.17;;;;;;;;;;5056561;27;20064;-67
2023/07/23 00:23:59;;;;;;;10.88;4.60;;;;;;;;;;5012416;28;20053;-65
2023/07/23 00:26:27;;;;;;;8.32;3.92;;;;;;;;;;5001118;28;20057;-68
2023/07/23 00:28:56;;;;;;;12.32;3.65;;;;;;;;;;4998724;28;20106;-68
2023/07/23 00:31:22;;;;;;;9.70;3.65;;;;;;;;;;5005379;27;20056;-71
2023/07/23 00:33:49;;;;;;;8.00;3.03;;;;;;;;;;4999901;28;20145;-71
2023/07/23 00:36:16;;;;;;;8.05;3.63;;;;;;;;;;5004215;28;20056;-73
2023/07/23 00:38:43;;;;;;;9.10;3.30;;;;;;;;;;5013849;27;20087;-71
2023/07/23 00:41:13;;;;;;;7.68;3.50;;;;;;;;;;5068532;28;20047;-67
2023/07/23 00:43:40;;;;;;;10.38;3.30;;;;;;;;;;5080695;28;20051;-68
2023/07/23 00:46:09;;;;;;;8.20;3.90;;;;;;;;;;5100772;28;20067;-72
2023/07/23 00:48:36;;;;;;;10.80;3.60;;;;;;;;;;5081540;28;20079;-72
2023/07/23 00:51:03;;;;;;;7.75;3.60;;;;;;;;;;5068524;28;20036;-75
2023/07/23 00:53:31;;;;;;;7.03;3.28;;;;;;;;;;5016722;28;20105;-72
2023/07/23 00:55:59;;;;;;;9.43;3.53;;;;;;;;;;4989632;28;20050;-70
2023/07/23 00:58:26;;;;;;;10.85;3.63;;;;;;;;;;4981479;28;20065;-69
2023/07/23 01:00:53;;;;;;;9.10;3.88;;;;;;;;;;5022487;27;20050;-69
2023/07/23 01:03:21;;;;;;;9.43;3.33;;;;;;;;;;5036500;27;20132;-66
2023/07/23 01:05:51;;;;;;;10.23;4.22;;;;;;;;;;4998972;27;20073;-72
2023/07/23 01:08:21;;;;;;;8.05;3.78;;;;;;;;;;5082486;27;20081;-72
2023/07/23 01:10:50;;;;;;;7.95;3.33;;;;;;;;;;4998762;27;20076;-69
2023/07/23 01:13:22;;;;;;;7.65;3.28;;;;;;;;;;4979747;28;20060;-69
2023/07/23 01:15:49;;;;;;;9.90;3.55;;;;;;;;;;5013556;28;20038;-71
2023/07/23 01:18:18;;;;;;;7.90;3.65;;;;;;;;;;5014239;27;20054;-71
2023/07/23 01:20:46;;;;;;;11.05;3.78;;;;;;;;;;4988918;28;20049;-69
2023/07/23 01:23:14;;;;;;;10.00;3.72;;;;;;;;;;5084414;27;20138;-69
2023/07/23 01:25:41;;;;;;;9.95;4.15;;;;;;;;;;4993474;27;20053;-69
2023/07/23 01:28:08;;;;;;;11.13;4.78;;;;;;;;;;5018482;27;20059;-67
2023/07/23 01:30:35;;;;;;;13.38;4.68;;;;;;;;;;4986420;28;20090;-69
2023/07/23 01:33:03;;;;;;;15.20;5.53;;;;;;;;;;4980335;28;20126;-71
2023/07/23 01:35:29;;;;;;;11.68;4.95;;;;;;;;;;4992554;27;20061;-68
2023/07/23 01:37:58;;;;;;;9.25;3.95;;;;;;;;;;4987637;28;20054;-68
2023/07/23 01:40:26;;;;;;;10.52;4.50;;;;;;;;;;5021485;28;20054;-67
2023/07/23 01:42:53;;;;;;;8.40;3.95;;;;;;;;;;4996468;28;20070;-72
2023/07/23 01:45:28;;;;;;;12.07;3.50;;;;;;;;;;4993543;28;20064;-70
2023/07/23 01:47:55;;;;;;;8.93;3.40;;;;;;;;;;5011542;28;20050;-65
2023/07/23 01:50:24;;;;;;;9.40;3.97;;;;;;;;;;4990970;27;20050;-65
2023/07/23 01:52:51;;;;;;;12.23;3.63;;;;;;;;;;5085142;27;20054;-67
2023/07/23 01:55:18;;;;;;;8.82;3.53;;;;;;;;;;4996957;27;20166;-68
2023/07/23 01:57:46;;;;;;;10.98;3.55;;;;;;;;;;4982915;28;20081;-69
2023/07/23 02:00:13;;;;;;;12.77;3.55;;;;;;;;;;4997243;27;20058;-70
2023/07/23 02:02:40;;;;;;;9.90;3.20;;;;;;;;;;5052019;28;20078;-70
2023/07/23 02:05:08;;;;;;;9.68;3.67;;;;;;;;;;5039013;27;20039;-73
2023/07/23 02:07:34;;;;;;;8.70;3.10;;;;;;;;;;4992899;27;20057;-72
2023/07/23 02:10:01;;;;;;;10.68;3.55;;;;;;;;;;5070768;27;20053;-71
2023/07/23 02:12:28;;;;;;;9.43;3.33;;;;;;;;;;4975861;28;20054;-68
2023/07/23 02:14:56;;;;;;;8.02;3.42;;;;;;;;;;5050630;27;20053;-65
2023/07/23 02:17:23;;;;;;;11.52;3.60;;;;;;;;;;4996023;28;20066;-71
2023/07/23 02:19:50;;;;;;;9.80;3.20;;;;;;;;;;4997374;28;20118;-68
2023/07/23 02:22:17;;;;;;;8.70;3.10;;;;;;;;;;4980213;28;20089;-67
2023/07/23 02:24:44;;;;;;;7.95;3.42;;;;;;;;;;5010441;27;20052;-66
2023/07/23 02:27:11;;;;;;;9.57;3.00;;;;;;;;;;5040804;27;20066;-68
2023/07/23 02:29:38;;;;;;;10.20;3.65;;;;;;;;;;4998513;28;20107;-70
2023/07/23 02:34:36;;;;;;;8.30;3.33;;;;;;;;;;5039991;28;20049;-66
2023/07/23 02:37:02;;;;;;;7.68;3.25;;;;;;;;;;5051527;28;20048;-66
2023/07/23 02:39:30;;;;;;;7.53;3.50;;;;;;;;;;5024734;28;20049;-67
2023/07/23 02:41:57;;;;;;;8.32;3.60;;;;;;;;;;5037384;28;20052;-69
2023/07/23 02:44:24;;;;;;;7.75;3.67;;;;;;;;;;5036068;28;20120;-71
2023/07/23 02:46:51;;;;;;;8.02;3.90;;;;;;;;;;5039957;28;20116;-66
2023/07/23 02:49:17;;;;;;;9.05;3.63;;;;;;;;;;5041716;28;20060;-67
2023/07/23 02:51:45;;;;;;;10.23;3.53;;;;;;;;;;5041619;28;20109;-66
2023/07/23 02:54:12;;;;;;;9.15;3.55;;;;;;;;;;5036660;28;20059;-67
2023/07/23 02:56:39;;;;;;;10.25;3.58;;;;;;;;;;5056988;28;20162;-69
2023/07/23 02:59:06;;;;;;;8.70;3.30;;;;;;;;;;5055158;28;20127;-69
2023/07/23 03:01:33;;;;;;;11.20;3.50;;;;;;;;;;5062661;28;20056;-69
2023/07/23 03:03:59;;;;;;;11.18;3.90;;;;;;;;;;5036531;28;20057;-70
2023/07/23 03:06:28;;;;;;;8.95;3.65;;;;;;;;;;5039674;28;20049;-68
2023/07/23 03:08:56;;;;;;;7.03;3.05;;;;;;;;;;5021239;28;20052;-68
2023/07/23 03:11:22;;;;;;;10.38;3.78;;;;;;;;;;5036184;28;20147;-70
2023/07/23 03:13:49;;;;;;;10.23;4.18;;;;;;;;;;5016617;28;20053;-68
2023/07/23 03:16:16;;;;;;;7.65;3.55;;;;;;;;;;5033787;28;20056;-70
2023/07/23 03:18:43;;;;;;;8.27;3.42;;;;;;;;;;5034696;28;20308;-67
2023/07/23 03:21:10;;;;;;;10.10;3.72;;;;;;;;;;5058737;28;20052;-66
2023/07/23 03:23:36;;;;;;;9.82;3.75;;;;;;;;;;5055241;28;20076;-68
2023/07/23 03:26:05;;;;;;;9.38;4.13;;;;;;;;;;5040365;28;20060;-69
2023/07/23 03:28:32;;;;;;;12.23;4.03;;;;;;;;;;5033146;28;20079;-68
2023/07/23 03:30:59;;;;;;;10.85;4.28;;;;;;;;;;5060577;28;20100;-70
2023/07/23 03:33:27;;;;;;;10.45;3.80;;;;;;;;;;5037709;28;20072;-68
2023/07/23 03:35:54;;;;;;;8.32;3.83;;;;;;;;;;5034780;28;20203;-68
2023/07/23 03:38:20;;;;;;;9.30;3.80;;;;;;;;;;5034842;28;20057;-69
2023/07/23 03:40:47;;;;;;;10.15;3.80;;;;;;;;;;5033196;28;20052;-68
2023/07/23 03:43:15;;;;;;;9.10;3.55;;;;;;;;;;5037547;28;20068;-66
2023/07/23 03:45:42;;;;;;;10.55;4.07;;;;;;;;;;5032965;28;20194;-67
2023/07/23 03:48:09;;;;;;;14.80;3.83;;;;;;;;;;5039318;28;20057;-67
2023/07/23 03:50:36;;;;;;;9.25;3.90;;;;;;;;;;5030546;28;20343;-66
2023/07/23 03:53:02;;;;;;;8.77;4.15;;;;;;;;;;5022927;28;20137;-66
2023/07/23 03:55:29;;;;;;;9.73;3.97;;;;;;;;;;5011425;28;20127;-66
2023/07/23 03:57:56;;;;;;;10.25;4.20;;;;;;;;;;5031485;28;20102;-67
2023/07/23 04:00:24;;;;;;;10.50;3.85;;;;;;;;;;5039840;28;20138;-66
2023/07/23 04:02:51;;;;;;;7.40;3.40;;;;;;;;;;5045480;28;20499;-68
2023/07/23 04:05:18;;;;;;;7.43;3.30;;;;;;;;;;5036403;28;20056;-66
2023/07/23 04:07:45;;;;;;;8.80;3.65;;;;;;;;;;5022807;28;20057;-67
2023/07/23 04:10:12;;;;;;;8.68;4.03;;;;;;;;;;5041989;28;20118;-68
2023/07/23 04:12:38;;;;;;;10.80;3.72;;;;;;;;;;5040093;28;20157;-67
2023/07/23 04:15:05;;;;;;;11.40;4.00;;;;;;;;;;5029864;28;20056;-68
2023/07/23 04:17:34;;;;;;;8.68;3.80;;;;;;;;;;5043612;28;20049;-67
2023/07/23 04:20:00;;;;;;;;;;;;;;;;;;5040507;28;20084;-67
2023/07/23 04:22:27;;;;;;;8.07;3.70;;;;;;;;;;5035174;28;19938;-68
2023/07/23 04:24:54;;;;;;;8.35;3.80;;;;;;;;;;5035444;28;20061;-67
2023/07/23 04:27:21;;;;;;;13.32;3.95;;;;;;;;;;5045859;28;20045;-67
2023/07/23 04:29:48;;;;;;;8.75;4.10;;;;;;;;;;5040929;28;20048;-66
2023/07/23 04:32:15;;;;;;;10.35;3.63;;;;;;;;;;5044608;28;20053;-66
2023/07/23 04:34:43;;;;;;;13.10;3.75;;;;;;;;;;5032056;28;20083;-68
2023/07/23 04:37:11;;;;;;;9.27;2.97;;;;;;;;;;5061317;28;20076;-67
2023/07/23 04:39:38;;;;;;;15.95;3.35;;;;;;;;;;5043421;28;20055;-66
2023/07/23 04:42:05;;;;;;;8.00;3.15;;;;;;;;;;5064193;28;20064;-67
2023/07/23 04:44:32;;;;;;;6.88;3.17;;;;;;;;;;5032674;28;20058;-68
2023/07/23 04:46:59;;;;;;;6.60;3.15;;;;;;;;;;5063142;28;20056;-69
2023/07/23 04:49:26;;;;;;;7.90;3.20;;;;;;;;;;5060655;28;20059;-67
2023/07/23 04:51:54;;;;;;;9.85;3.13;;;;;;;;;;5062625;28;20151;-66
2023/07/23 04:54:21;;;;;;;6.05;3.17;;;;;;;;;;5053429;28;20084;-67
2023/07/23 04:56:50;;;;;;;6.90;2.95;;;;;;;;;;5042806;28;20060;-67
2023/07/23 04:59:17;;;;;;;9.13;3.55;;;;;;;;;;5043838;28;20095;-68
2023/07/23 05:01:44;;;;;;;9.75;2.88;;;;;;;;;;5059716;28;20060;-67
2023/07/23 05:04:11;;;;;;;7.90;2.65;;;;;;;;;;5057360;28;20155;-66
2023/07/23 05:06:37;;;;;;;6.90;3.08;;;;;;;;;;5043503;28;20052;-68
2023/07/23 05:09:06;;;;;;;5.75;2.70;;;;;;;;;;5051254;28;20044;-66
2023/07/23 05:11:33;;;;;;;10.63;2.97;;;;;;;;;;5042852;28;20106;-67
2023/07/23 05:13:59;;;;;;;10.40;2.65;;;;;;;;;;5034298;28;30786;-68
2023/07/23 05:16:27;;;;;;;8.15;3.13;;;;;;;;;;5039453;28;20068;-68
2023/07/23 05:18:54;;;;;;;6.63;2.78;;;;;;;;;;5059593;28;20060;-68
2023/07/23 05:21:21;;;;;;;11.40;2.90;;;;;;;;;;5043392;28;20048;-67
2023/07/23 05:23:47;;;;;;;6.82;2.75;;;;;;;;;;5053599;28;20072;-66
2023/07/23 05:26:17;;;;;;;7.10;2.80;;;;;;;;;;5061913;28;20129;-66
2023/07/23 05:28:44;;;;;;;4.90;2.50;;;;;;;;;;5054264;28;20168;-66
2023/07/23 05:31:11;;;;;;;6.28;2.92;;;;;;;;;;5059080;28;20045;-69
2023/07/23 05:33:38;;;;;;;6.85;2.60;;;;;;;;;;5055662;28;20549;-68
2023/07/23 05:36:05;;;;;;;6.22;2.78;;;;;;;;;;5053833;28;20071;-66
2023/07/23 05:38:32;;;;;;;9.00;2.85;;;;;;;;;;5014526;28;20084;-68
2023/07/23 05:40:59;;;;;;;7.32;2.55;;;;;;;;;;5024747;28;20049;-67
2023/07/23 05:43:29;;;;;;;6.65;2.85;;;;;;;;;;5041115;28;20076;-68
2023/07/23 05:45:56;;;;;;;8.07;2.88;;;;;;;;;;5035048;28;20078;-69
2023/07/23 05:48:25;;;;;;;8.70;2.67;;;;;;;;;;5018883;28;20048;-68
2023/07/23 05:50:52;;;;;;;7.45;2.45;;;;;;;;;;5030330;28;20049;-68
2023/07/23 05:53:18;;;;;;;9.80;2.92;;;;;;;;;;5061837;28;20052;-67
2023/07/23 05:55:46;;;;;;;5.63;2.53;;;;;;;;;;5038721;28;20056;-67
2023/07/23 05:58:12;;;;;;;9.40;2.65;;;;;;;;;;5041121;28;20083;-68
2023/07/23 06:00:41;;;;;;;7.40;2.92;;;;;;;;;;5013106;28;20049;-68
2023/07/23 06:03:07;;;;;;;9.38;2.88;;;;;;;;;;5042471;28;20051;-68
2023/07/23 06:05:34;;;;;;;5.45;2.47;;;;;;;;;;5038389;28;20052;-67
2023/07/23 06:08:01;;;;;;;4.88;2.28;;;;;;;;;;5044988;28;20110;-68
2023/07/23 06:10:28;;;;;;;6.53;2.65;;;;;;;;;;5035074;28;20068;-68
2023/07/23 06:12:55;;;;;;;8.70;3.08;;;;;;;;;;5044576;28;20117;-66
2023/07/23 06:15:22;;;;;;;11.70;3.92;;;;;;;;;;5055962;28;20110;-67
2023/07/23 06:17:50;;;;;;;9.00;3.38;;;;;;;;;;5042961;28;20071;-67
2023/07/23 06:20:17;;;;;;;7.88;2.80;;;;;;;;;;5037328;28;20057;-69
2023/07/23 06:22:44;;;;;;;5.97;2.60;;;;;;;;;;5031720;28;20161;-67
2023/07/23 06:25:11;;;;;;;6.47;2.80;;;;;;;;;;5053816;28;20044;-68
2023/07/23 06:27:38;;;;;;;8.70;2.75;;;;;;;;;;5038428;28;20064;-67
2023/07/23 06:30:06;;;;;;;5.22;2.33;;;;;;;;;;5037278;28;20159;-68
2023/07/23 06:32:32;;;;;;;8.70;2.92;;;;;;;;;;5035413;28;20064;-67
2023/07/23 06:35:01;;;;;;;4.47;2.25;;;;;;;;;;5049526;28;20060;-67
2023/07/23 06:37:28;;;;;;;12.88;2.83;;;;;;;;;;5041867;28;20059;-67
2023/07/23 06:39:55;;;;;;;10.38;2.92;;;;;;;;;;5059176;28;20053;-67
2023/07/23 06:42:22;;;;;;;7.97;2.83;;;;;;;;;;5034614;28;20052;-67
2023/07/23 06:44:49;;;;;;;18.20;2.80;;;;;;;;;;5045272;28;20068;-67
2023/07/23 06:47:16;;;;;;;8.05;2.78;;;;;;;;;;5041323;28;20056;-66
2023/07/23 06:49:43;;;;;;;8.13;2.78;;;;;;;;;;5041854;28;20037;-66
2023/07/23 06:52:11;;;;;;;6.65;2.70;;;;;;;;;;5038748;28;20048;-68
2023/07/23 06:54:42;;;;;;;4.60;2.45;;;;;;;;;;5030105;28;20129;-67
2023/07/23 06:57:09;;;;;;;12.02;2.65;;;;;;;;;;5058000;28;20044;-68
2023/07/23 06:59:36;;;;;;;7.57;2.70;;;;;;;;;;5059082;28;20048;-67
2023/07/23 07:02:02;;;;;;;6.80;2.78;;;;;;;;;;5040168;28;20051;-67
2023/07/23 07:04:29;;;;;;;9.95;4.78;;;;;;;;;;5046587;28;20060;-67
2023/07/23 07:06:56;;;;;;;5.20;2.47;;;;;;;;;;5040380;28;20058;-69
2023/07/23 07:09:25;;;;;;;6.95;2.50;;;;;;;;;;5039711;28;20076;-66
2023/07/23 07:11:51;;;;;;;6.93;2.50;;;;;;;;;;5057051;28;20117;-67
2023/07/23 07:14:19;;;;;;;9.68;2.70;;;;;;;;;;5036011;28;20110;-68
2023/07/23 07:16:45;;;;;;;6.65;2.70;;;;;;;;;;5035540;28;20075;-67
2023/07/23 07:19:12;;;;;;;6.15;2.53;;;;;;;;;;5038738;28;20057;-68
2023/07/23 07:21:39;;;;;;;6.38;2.63;;;;;;;;;;5040091;28;20057;-66
2023/07/23 07:24:06;;;;;;;9.70;2.97;;;;;;;;;;5054291;28;20056;-66
2023/07/23 07:26:34;;;;;;;8.45;2.58;;;;;;;;;;5034385;28;20056;-68
2023/07/23 07:29:02;;;;;;;8.13;2.75;;;;;;;;;;5060990;28;20068;-68
2023/07/23 07:31:29;;;;;;;8.18;2.88;;;;;;;;;;5044284;28;20052;-68
2023/07/23 07:33:58;;;;;;;8.38;2.85;;;;;;;;;;5037859;28;20081;-67
2023/07/23 07:36:28;;;;;;;7.10;2.88;;;;;;;;;;5039456;28;20053;-69
2023/07/23 07:38:55;;;;;;;8.02;3.10;;;;;;;;;;5043110;28;20121;-67
2023/07/23 07:41:21;;;;;;;8.38;3.40;;;;;;;;;;5044347;28;20525;-69
2023/07/23 07:43:49;;;;;;;6.10;2.97;;;;;;;;;;5038775;28;20054;-67
2023/07/23 07:46:16;;;;;;;5.32;2.72;;;;;;;;;;5042220;28;20061;-69
2023/07/23 07:48:43;;;;;;;7.07;2.80;;;;;;;;;;5039734;28;20056;-67
2023/07/23 07:51:10;;;;;;;6.35;2.60;;;;;;;;;;5061485;28;20064;-68
2023/07/23 07:53:39;;;;;;;12.98;2.72;;;;;;;;;;5039777;28;20063;-70
2023/07/23 07:56:13;;;;;;;;;;;;;;;;;;5039976;28;20053;-68
2023/07/23 07:58:41;;;;;;;5.65;2.20;;;;;;;;;;5048040;28;20015;-67
2023/07/23 08:01:10;;;;;;;5.32;2.28;;;;;;;;;;5041725;28;20057;-67
2023/07/23 08:03:37;;;;;;;6.72;3.00;;;;;;;;;;5040856;28;20114;-70
2023/07/23 08:06:04;;;;;;;6.68;2.58;;;;;;;;;;5040420;28;20079;-67
2023/07/23 08:08:34;;;;;;;6.28;2.72;;;;;;;;;;5038535;28;20053;-68
2023/07/23 08:11:02;;;;;;;5.93;2.38;;;;;;;;;;5061327;28;20059;-70
2023/07/23 08:13:29;;;;;;;;;;;;;;;;;;5041837;28;20045;-67
2023/07/23 08:15:56;;;;;;;5.05;2.30;;;;;;;;;;5036318;28;19946;-67
2023/07/23 08:18:25;;;;;;;7.65;2.80;;;;;;;;;;5058327;28;20091;-67
2023/07/23 08:20:54;;;;;;;;;;;;;;;;;;5062460;28;20075;-65
2023/07/23 08:23:21;;;;;;;7.95;3.38;;;;;;;;;;5061964;28;19924;-67
2023/07/23 08:25:51;;;;;;;6.97;2.85;;;;;;;;;;5039227;28;20049;-67
2023/07/23 08:28:22;;;;;;;8.32;2.60;;;;;;;;;;5061080;28;20060;-67
2023/07/23 08:30:50;;;;;;;7.20;2.83;;;;;;;;;;5040497;28;20059;-67
2023/07/23 08:33:18;;;;;;;6.47;2.30;;;;;;;;;;5034904;28;20048;-67
2023/07/23 08:35:47;;;;;;;4.72;2.30;;;;;;;;;;5045614;28;20107;-67
2023/07/23 08:38:16;;;;;;;7.50;2.83;;;;;;;;;;5061518;28;20071;-67
2023/07/23 08:40:45;;;;;;;8.82;2.45;;;;;;;;;;5054167;28;20065;-67
2023/07/23 08:43:47;;;;;;;5.50;2.42;;;;;;;;;;5042984;28;20053;-68
2023/07/23 08:46:32;;;;;;;9.27;2.47;;;;;;;;;;5030220;28;20052;-66
2023/07/23 08:49:09;;;;;;;7.43;2.67;;;;;;;;;;5059182;28;20197;-67
2023/07/23 08:51:43;;;;;;;6.30;2.55;;;;;;;;;;5059712;28;20135;-68
2023/07/23 08:54:11;;;;;;;7.38;3.13;;;;;;;;;;5023568;28;20063;-67
2023/07/23 08:56:39;;;;;;;8.23;3.80;;;;;;;;;;5037689;28;20049;-68
2023/07/23 08:59:06;;;;;;;;;;;;;;;;;;5044226;28;20060;-67
2023/07/23 09:01:38;;;;;;;5.30;2.42;;;;;;;;;;5042012;28;19967;-67
2023/07/23 09:04:07;;;;;;;8.43;2.50;;;;;;;;;;5028395;28;20067;-66
2023/07/23 09:06:34;;;;;;;8.15;2.72;;;;;;;;;;5030923;28;20053;-65
2023/07/23 09:09:09;;;;;;;6.87;2.57;;;;;;;;;;5041721;28;20188;-67
2023/07/23 09:11:36;;;;;;;7.18;2.60;;;;;;;;;;5057905;28;20063;-67
2023/07/23 09:14:08;;;;;;;6.63;2.25;;;;;;;;;;5013594;28;20167;-69
2023/07/23 09:16:41;;;;;;;6.65;2.20;;;;;;;;;;5034122;28;20049;-68
2023/07/23 09:19:09;;;;;;;7.80;2.40;;;;;;;;;;5042328;28;20160;-69
2023/07/23 09:21:38;;;;;;;4.40;2.10;;;;;;;;;;5060662;28;20155;-66
2023/07/23 09:24:09;;;;;;;5.57;2.42;;;;;;;;;;5008243;28;20076;-66
2023/07/23 09:26:38;;;;;;;6.07;2.60;;;;;;;;;;5055173;28;20367;-66
2023/07/23 09:29:09;;;;;;;6.55;2.97;;;;;;;;;;5060097;28;20079;-66
2023/07/23 09:31:37;;;;;;;6.60;3.10;;;;;;;;;;5058285;28;20116;-67
2023/07/23 09:34:04;;;;;;;8.60;2.53;;;;;;;;;;5041856;28;20144;-67
2023/07/23 09:36:36;;;;;;;6.70;2.88;;;;;;;;;;5038354;28;20072;-67
2023/07/23 09:39:05;;;;;;;;;;;;;;;;;;5038671;28;20068;-67
2023/07/23 09:41:37;;;;;;;5.65;2.20;;;;;;;;;;5066138;28;19972;-69
2023/07/23 09:44:09;;;;;;;6.63;2.38;;;;;;;;;;5043329;28;20052;-67
2023/07/23 09:46:37;;;;;;;5.30;2.20;;;;;;;;;;5053086;28;20162;-68
2023/07/23 09:49:04;;;;;;;4.82;2.28;;;;;;;;;;5044239;28;20127;-69
2023/07/23 09:51:33;;;;;;;5.28;2.28;;;;;;;;;;5043830;28;20055;-68
2023/07/23 09:54:01;;;;;;;5.97;2.38;;;;;;;;;;5018318;28;20148;-70
2023/07/23 09:56:30;;;;;;;5.57;2.28;;;;;;;;;;5020789;28;20048;-70
2023/07/23 09:59:01;;;;;;;5.25;2.35;;;;;;;;;;5064843;28;20052;-69
2023/07/23 10:01:37;;;;;;;6.70;2.53;;;;;;;;;;5048049;28;20228;-69
2023/07/23 10:04:08;;;;;;;6.72;2.88;;;;;;;;;;5051772;28;20080;-70
2023/07/23 10:06:35;;;;;;;5.63;2.45;;;;;;;;;;5028490;28;20060;-70
2023/07/23 10:09:03;;;;;;;5.75;2.45;;;;;;;;;;5074000;28;20130;-70
2023/07/23 10:11:31;;;;;;;4.63;2.08;;;;;;;;;;5063185;28;20135;-70
2023/07/23 10:14:03;;;;;;;3.90;2.10;;;;;;;;;;5043182;28;20070;-71
2023/07/23 10:16:33;;;;;;;4.72;2.00;;;;;;;;;;5012215;28;20056;-68
2023/07/23 10:19:04;;;;;;;6.22;2.88;;;;;;;;;;5045702;28;20048;-69
2023/07/23 10:21:32;;;;;;;10.38;4.32;;;;;;;;;;5042479;28;20066;-69
2023/07/23 10:23:59;;;;;;;6.93;3.27;;;;;;;;;;5040519;28;20063;-69
2023/07/23 10:26:28;;;;;;;3.83;1.67;;;;;;;;;;5028610;28;20084;-68
2023/07/23 10:28:59;;;;;;;4.35;1.98;;;;;;;;;;5042165;28;20060;-69
2023/07/23 10:31:29;;;;;;;5.43;2.38;;;;;;;;;;5062509;28;20056;-69
2023/07/23 10:34:00;;;;;;;4.13;1.75;;;;;;;;;;5030444;28;20078;-69
2023/07/23 10:36:28;;;;;;;3.22;1.58;;;;;;;;;;5026894;28;20048;-69
2023/07/23 10:39:20;;;;;;;5.55;1.70;;;;;;;;;;5061421;28;20056;-67
2023/07/23 10:41:53;;;;;;;2.65;1.30;;;;;;;;;;5062509;28;20052;-67
2023/07/23 10:44:30;;;;;;;3.25;1.40;;;;;;;;;;5039651;28;20075;-69
2023/07/23 10:46:57;;;;;;;2.83;1.40;;;;;;;;;;5062261;28;20061;-67
2023/07/23 10:49:27;;;;;;;3.75;1.83;;;;;;;;;;5046390;28;20052;-67
2023/07/23 10:51:56;;;;;;;2.92;1.55;;;;;;;;;;5044058;28;20068;-67
2023/07/23 10:54:27;;;;;;;3.60;1.33;;;;;;;;;;5045387;28;20055;-67
2023/07/23 10:56:56;;;;;;;3.38;1.60;;;;;;;;;;5040634;28;20044;-68
2023/07/23 10:59:26;;;;;;;5.72;1.38;;;;;;;;;;5042412;28;20056;-67
2023/07/23 11:01:55;;;;;;;4.10;1.50;;;;;;;;;;5057469;28;20063;-70
2023/07/23 11:04:27;;;;;;;3.00;1.58;;;;;;;;;;5053991;28;20048;-70
2023/07/23 11:07:01;;;;;;;3.47;1.67;;;;;;;;;;5039470;28;20059;-69
2023/07/23 11:09:32;;;;;;;4.45;2.00;;;;;;;;;;5061842;28;20080;-72
2023/07/23 11:12:00;;;;;;;7.70;2.67;;;;;;;;;;5044029;28;20051;-68
2023/07/23 11:14:34;;;;;;;3.80;1.67;;;;;;;;;;5033185;28;20103;-68
2023/07/23 11:17:03;;;;;;;4.38;1.95;;;;;;;;;;5037232;28;20056;-67
2023/07/23 11:19:31;;;;;;;;;;;;;;;;;;5063340;28;20052;-68
2023/07/23 11:21:59;;;;;;;3.65;1.75;;;;;;;;;;5055309;28;19932;-69
2023/07/23 11:24:32;;;;;;;6.32;2.35;;;;;;;;;;5002168;28;20061;-67
2023/07/23 11:27:01;;;;;;;7.38;2.78;;;;;;;;;;5028057;28;20049;-67
2023/07/23 11:29:30;;;;;;;8.05;4.07;;;;;;;;;;5041465;28;20080;-69
2023/07/23 11:31:57;;;;;;;5.22;2.50;;;;;;;;;;5060157;28;20056;-68
2023/07/23 11:34:27;;;;;;;5.50;2.20;;;;;;;;;;5028514;28;20064;-67
2023/07/23 11:36:55;;;;;;;5.28;2.30;;;;;;;;;;5038708;28;20049;-67
2023/07/23 11:39:24;;;;;;;6.43;2.78;;;;;;;;;;5026610;28;20072;-68
2023/07/23 11:41:52;;;;;;;5.38;2.63;;;;;;;;;;5025953;28;20095;-67
2023/07/23 11:44:22;;;;;;;6.22;3.00;;;;;;;;;;5032570;28;20150;-68
2023/07/23 11:46:50;;;;;;;6.78;3.03;;;;;;;;;;5033770;28;20112;-67
2023/07/23 11:49:17;;;;;;;5.82;2.58;;;;;;;;;;5039544;28;20076;-67
2023/07/23 11:51:44;;;;;;;5.43;2.90;;;;;;;;;;5039463;28;20060;-68
2023/07/23 11:54:12;;;;;;;6.70;2.88;;;;;;;;;;5027522;28;20140;-67
2023/07/23 11:56:42;;;;;;;7.20;3.00;;;;;;;;;;4985519;28;20136;-67
2023/07/23 11:59:14;;;;;;;6.38;3.22;;;;;;;;;;5020649;28;20053;-70
2023/07/23 12:01:41;;;;;;;6.00;3.00;;;;;;;;;;5036134;28;20084;-67
2023/07/23 12:04:10;;;;;;;5.68;2.85;;;;;;;;;;5036319;28;20057;-70
2023/07/23 12:06:41;;;;;;;7.90;2.90;;;;;;;;;;5030358;28;20142;-67
2023/07/23 12:09:10;;;;;;;7.78;3.05;;;;;;;;;;5032179;28;20106;-68
2023/07/23 12:11:39;;;;;;;6.30;2.90;;;;;;;;;;5038356;28;20060;-68
2023/07/23 12:14:09;;;;;;;6.35;2.85;;;;;;;;;;5044950;28;20081;-68
2023/07/23 12:16:38;;;;;;;8.43;3.00;;;;;;;;;;5037550;28;20075;-67
2023/07/23 12:19:11;;;;;;;6.70;3.13;;;;;;;;;;5041552;28;20280;-67
2023/07/23 12:21:39;;;;;;;8.05;3.25;;;;;;;;;;5046591;28;20049;-67
2023/07/23 12:24:19;;;;;;;;;;;;;;;;;;5046748;28;20048;-68
2023/07/23 12:26:47;;;;;;;10.27;3.13;;;;;;;;;;5057822;28;19928;-67
2023/07/23 12:29:17;;;;;;;;;;;;;;;;;;5023546;28;20057;-68
2023/07/23 12:31:45;;;;;;;6.50;2.95;;;;;;;;;;5038632;28;20008;-67
2023/07/23 12:34:16;;;;;;;5.60;2.90;;;;;;;;;;5051275;28;20131;-68
2023/07/23 12:36:43;;;;;;;5.90;2.83;;;;;;;;;;5020297;28;21431;-70
2023/07/23 12:39:11;;;;;;;6.65;3.00;;;;;;;;;;5044805;28;20049;-69
2023/07/23 12:41:38;;;;;;;9.27;3.28;;;;;;;;;;5045074;28;20053;-69
2023/07/23 12:44:06;;;;;;;7.55;3.33;;;;;;;;;;5028167;28;20049;-70
2023/07/23 12:46:33;;;;;;;8.02;3.38;;;;;;;;;;5023602;28;20052;-70
2023/07/23 12:49:02;;;;;;;8.35;4.05;;;;;;;;;;5043050;28;20048;-66
2023/07/23 12:51:31;;;;;;;7.32;3.42;;;;;;;;;;5040512;28;20068;-66
2023/07/23 12:54:00;;;;;;;11.10;4.07;;;;;;;;;;5052297;28;20057;-66
2023/07/23 12:56:27;;;;;;;8.20;3.60;;;;;;;;;;5006336;28;20072;-67
2023/07/23 12:58:54;;;;;;;13.18;4.88;;;;;;;;;;5042465;28;20061;-65
2023/07/23 13:01:21;;;;;;;15.50;5.18;;;;;;;;;;5041527;28;20049;-70
2023/07/23 13:03:47;;;;;;;7.47;3.80;;;;;;;;;;5040552;28;20056;-70
2023/07/23 13:06:14;;;;;;;7.07;3.03;;;;;;;;;;5042617;28;20056;-69
2023/07/23 13:08:44;;;;;;;8.07;3.28;;;;;;;;;;5035985;28;20167;-70
2023/07/23 13:11:14;;;;;;;9.43;3.45;;;;;;;;;;5040943;28;20053;-69
2023/07/23 13:13:43;;;;;;;5.50;2.85;;;;;;;;;;5040875;28;20057;-69
2023/07/23 13:16:14;;;;;;;6.63;2.70;;;;;;;;;;5029189;28;20056;-68
2023/07/23 13:18:41;;;;;;;5.70;2.88;;;;;;;;;;5039237;28;20122;-69
2023/07/23 13:21:13;;;;;;;6.00;2.58;;;;;;;;;;5041883;28;20148;-67
2023/07/23 13:23:54;;;;;;;;;;;;;;;;;;;;;
2023/07/23 13:26:25;;;;;;;8.80;2.95;;;;;;;;;;4983414;28;20060;-69
2023/07/23 13:28:52;;;;;;;6.53;2.45;;;;;;;;;;5039720;28;20089;-69
2023/07/23 13:31:19;;;;;;;6.25;2.53;;;;;;;;;;5043207;28;20160;-69
2023/07/23 13:33:51;;;;;;;8.63;2.95;;;;;;;;;;5055025;28;20052;-69
2023/07/23 13:36:21;;;;;;;23.98;13.27;;;;;;;;;;5014003;28;20048;-69
2023/07/23 13:39:15;;;;;;;14.50;5.93;;;;;;;;;;5046336;28;20056;-69
2023/07/23 13:41:49;;;;;;;8.73;5.07;;;;;;;;;;5044123;28;20060;-74
2023/07/23 13:44:42;;;;;;;9.32;3.83;;;;;;;;;;5001771;28;20080;-71
2023/07/23 13:47:10;;;;;;;7.88;4.00;;;;;;;;;;4984451;28;20053;-76
2023/07/23 13:49:43;;;;;;;6.82;3.17;;;;;;;;;;5042582;28;20053;-72
2023/07/23 13:52:10;;;;;;;9.05;4.38;;;;;;;;;;5043367;28;20072;-70
2023/07/23 13:54:39;;;;;;;6.40;3.33;;;;;;;;;;5027000;28;20134;-69
2023/07/23 13:57:06;;;;;;;;;;;;;;;;;;5044435;28;20077;-69
2023/07/23 13:59:34;;;;;;;6.80;3.10;;;;;;;;;;5040633;28;20011;-72
2023/07/23 14:02:04;;;;;;;8.33;3.57;;;;;;;;;;5038973;28;20063;-69
2023/07/23 14:04:37;;;;;;;5.80;2.60;;;;;;;;;;5011311;28;20382;-72
2023/07/23 14:07:09;;;;;;;6.90;2.83;;;;;;;;;;4919506;28;20055;-78
2023/07/23 14:09:50;;;;;;;6.63;2.80;;;;;;;;;;4983815;28;20045;-75
2023/07/23 14:12:31;;;;;;;5.35;2.70;;;;;;;;;;4967617;28;20050;-75
2023/07/23 14:14:58;;;;;;;5.78;2.40;;;;;;;;;;4916989;28;20081;-71
2023/07/23 14:17:25;;;;;;;11.27;2.58;;;;;;;;;;4931414;28;20467;-72
2023/07/23 14:19:53;;;;;;;9.45;2.65;;;;;;;;;;4998886;28;20053;-77
2023/07/23 14:22:35;;;;;;;7.03;2.45;;;;;;;;;;5002635;28;20099;-76
2023/07/23 14:25:24;;;;;;;6.93;2.80;;;;;;;;;;4877805;28;20101;-77
2023/07/23 14:27:52;;;;;;;6.43;2.42;;;;;;;;;;4959824;28;20057;-81
2023/07/23 14:30:57;;;;;;;;;;;;;;;;;;;;;
2023/07/23 14:33:27;;;;;;;7.95;3.28;;;;;;;;;;4961643;28;20053;-71
2023/07/23 14:35:55;;;;;;;10.43;5.53;;;;;;;;;;4952942;28;20046;-70
2023/07/23 14:38:24;;;;;;;7.70;4.28;;;;;;;;;;4988334;28;20072;-68
2023/07/23 14:40:53;;;;;;;5.18;2.72;;;;;;;;;;5020356;28;20065;-67
2023/07/23 14:44:22;;;;;;;5.97;2.60;;;;;;;;;;5028267;28;20045;-69
2023/07/23 14:46:50;;;;;;;7.63;2.42;;;;;;;;;;4886281;28;20194;-69
2023/07/23 14:49:18;;;;;;;5.55;2.83;;;;;;;;;;4971028;28;20089;-69
2023/07/23 14:51:47;;;;;;;5.63;2.63;;;;;;;;;;4982541;28;20046;-68
2023/07/23 14:54:14;;;;;;;5.43;2.78;;;;;;;;;;4994737;28;20053;-71
2023/07/23 14:56:42;;;;;;;7.63;3.17;;;;;;;;;;5020551;28;20126;-68
2023/07/23 14:59:09;;;;;;;7.53;3.53;;;;;;;;;;5054446;28;20059;-69